Time;durP1;ratioP1;P1;durP2;ratioP2;P2;SDS_P1;SDS_P2;PMS_P1;PMS_P2;Temp;Humidity;BMP_temperature;BMP_pressure;BME280_temperature;BME280_humidity;BME280_pressure;Samples;Min_cycle;Max_cycle;Signal;HPM_P1;HPM_P2
2022/05/14 00:01:53;;;;;;;1.75;1.10;;;;;;;;;;5073993;28;20028;-78
2022/05/14 00:04:18;;;;;;;2.78;1.00;;;;;;;;;;5056456;28;20032;-76
2022/05/14 00:06:43;;;;;;;1.58;0.98;;;;;;;;;;5056145;28;20056;-76
2022/05/14 00:09:09;;;;;;;1.35;1.00;;;;;;;;;;5055992;28;20493;-77
2022/05/14 00:14:19;;;;;;;2.72;1.25;;;;;;;;;;5072957;28;20447;-77
2022/05/14 00:16:44;;;;;;;3.85;1.20;;;;;;;;;;5072947;28;20033;-77
2022/05/14 00:19:10;;;;;;;2.05;1.10;;;;;;;;;;5039186;28;20438;-77
2022/05/14 00:21:36;;;;;;;1.40;0.98;;;;;;;;;;5073688;28;20105;-77
2022/05/14 00:24:03;;;;;;;2.10;1.08;;;;;;;;;;5055715;28;20028;-80
2022/05/14 00:26:29;;;;;;;1.70;1.10;;;;;;;;;;5055866;28;20028;-77
2022/05/14 00:28:54;;;;;;;3.40;1.27;;;;;;;;;;5055555;28;20029;-77
2022/05/14 00:31:20;;;;;;;1.20;0.88;;;;;;;;;;5073618;28;20062;-77
2022/05/14 00:33:46;;;;;;;2.35;1.20;;;;;;;;;;5072212;28;20032;-77
2022/05/14 00:36:12;;;;;;;1.85;1.00;;;;;;;;;;5055705;28;20078;-76
2022/05/14 00:38:38;;;;;;;1.17;1.00;;;;;;;;;;5055385;28;20032;-76
2022/05/14 00:41:06;;;;;;;2.38;1.05;;;;;;;;;;5055575;28;20558;-77
2022/05/14 00:43:32;;;;;;;2.00;1.00;;;;;;;;;;5072018;28;20033;-76
2022/05/14 00:46:10;;;;;;;2.80;1.20;;;;;;;;;;5072254;28;20027;-76
2022/05/14 00:48:41;;;;;;;2.67;1.02;;;;;;;;;;5072284;28;20024;-77
2022/05/14 00:51:08;;;;;;;1.45;0.90;;;;;;;;;;5038761;28;20466;-76
2022/05/14 00:53:36;;;;;;;3.00;1.08;;;;;;;;;;5071719;28;20068;-76
2022/05/14 00:56:04;;;;;;;2.33;1.42;;;;;;;;;;5073273;28;20475;-76
2022/05/14 00:58:35;;;;;;;1.60;1.00;;;;;;;;;;5071137;28;20099;-76
2022/05/14 01:01:01;;;;;;;1.98;1.30;;;;;;;;;;5054580;28;20433;-76
2022/05/14 01:03:26;;;;;;;1.95;0.95;;;;;;;;;;5055216;28;20024;-77
2022/05/14 01:05:53;;;;;;;1.70;0.98;;;;;;;;;;5071845;28;20090;-77
2022/05/14 01:08:18;;;;;;;1.42;0.80;;;;;;;;;;5071746;28;20107;-78
2022/05/14 01:10:45;;;;;;;1.45;0.95;;;;;;;;;;5055017;28;20067;-77
2022/05/14 01:13:11;;;;;;;1.33;0.95;;;;;;;;;;5055032;28;20021;-77
2022/05/14 01:15:47;;;;;;;5.25;1.13;;;;;;;;;;5071653;28;20047;-77
2022/05/14 01:18:13;;;;;;;1.40;0.90;;;;;;;;;;5054831;28;20059;-78
2022/05/14 01:20:39;;;;;;;2.72;1.20;;;;;;;;;;5054800;28;20132;-78
2022/05/14 01:26:29;;;;;;;4.13;1.25;;;;;;;;;;5071756;28;20504;-78
2022/05/14 01:28:59;;;;;;;2.38;1.10;;;;;;;;;;5054394;28;20028;-78
2022/05/14 01:31:27;;;;;;;2.60;1.10;;;;;;;;;;5071430;28;20075;-78
2022/05/14 01:33:53;;;;;;;1.42;1.00;;;;;;;;;;5071093;28;20186;-78
2022/05/14 01:36:18;;;;;;;2.45;1.30;;;;;;;;;;5054423;28;20078;-78
2022/05/14 01:38:44;;;;;;;2.28;0.90;;;;;;;;;;5054246;28;20029;-78
2022/05/14 01:41:09;;;;;;;2.90;1.17;;;;;;;;;;5071164;28;20028;-77
2022/05/14 01:43:35;;;;;;;1.45;1.10;;;;;;;;;;5054167;28;20028;-77
2022/05/14 01:46:00;;;;;;;3.63;1.40;;;;;;;;;;5054768;28;20415;-77
2022/05/14 01:48:26;;;;;;;1.88;1.20;;;;;;;;;;5054420;28;20395;-78
2022/05/14 01:50:51;;;;;;;2.50;1.13;;;;;;;;;;5070959;28;20502;-78
2022/05/14 01:53:16;;;;;;;1.52;1.10;;;;;;;;;;5071031;28;20044;-78
2022/05/14 01:55:42;;;;;;;2.85;1.08;;;;;;;;;;5070754;28;20040;-78
2022/05/14 02:00:52;;;;;;;1.55;1.00;;;;;;;;;;5071332;28;20197;-79
2022/05/14 02:03:17;;;;;;;3.53;1.08;;;;;;;;;;5054012;28;20107;-78
2022/05/14 02:05:43;;;;;;;1.75;1.20;;;;;;;;;;5070666;28;20390;-78
2022/05/14 02:08:08;;;;;;;3.13;1.17;;;;;;;;;;5070787;28;20028;-78
2022/05/14 02:10:34;;;;;;;2.67;1.58;;;;;;;;;;5053541;28;20434;-79
2022/05/14 02:12:59;;;;;;;2.03;1.10;;;;;;;;;;5053879;28;20024;-79
2022/05/14 02:15:25;;;;;;;2.28;1.10;;;;;;;;;;5053905;28;20376;-78
2022/05/14 02:17:50;;;;;;;1.50;1.00;;;;;;;;;;5070974;28;20036;-78
2022/05/14 02:20:16;;;;;;;2.92;1.15;;;;;;;;;;5053874;28;20028;-78
2022/05/14 02:22:42;;;;;;;3.88;1.65;;;;;;;;;;5070948;28;20156;-79
2022/05/14 02:25:08;;;;;;;3.25;1.25;;;;;;;;;;5053780;28;20028;-78
2022/05/14 02:27:34;;;;;;;2.78;1.40;;;;;;;;;;5070614;28;20040;-78
2022/05/14 02:29:59;;;;;;;2.47;1.10;;;;;;;;;;5071779;28;20471;-78
2022/05/14 02:32:26;;;;;;;2.95;1.30;;;;;;;;;;5071608;28;20029;-78
2022/05/14 02:34:53;;;;;;;4.22;1.50;;;;;;;;;;5070850;28;20157;-78
2022/05/14 02:37:19;;;;;;;5.43;1.40;;;;;;;;;;5053991;28;20492;-78
2022/05/14 02:39:45;;;;;;;3.70;1.40;;;;;;;;;;5070545;28;20028;-78
2022/05/14 02:42:10;;;;;;;3.75;1.33;;;;;;;;;;5053863;28;20025;-78
2022/05/14 02:44:36;;;;;;;4.15;1.45;;;;;;;;;;5070478;28;20032;-78
2022/05/14 02:47:01;;;;;;;5.43;1.33;;;;;;;;;;5053977;28;20036;-78
2022/05/14 02:49:27;;;;;;;4.10;1.50;;;;;;;;;;5071829;28;20024;-78
2022/05/14 02:51:53;;;;;;;4.00;1.60;;;;;;;;;;5053412;28;20029;-78
2022/05/14 02:54:18;;;;;;;3.53;1.40;;;;;;;;;;5071611;28;20127;-78
2022/05/14 02:56:43;;;;;;;4.93;1.50;;;;;;;;;;5070333;28;20507;-79
2022/05/14 02:59:09;;;;;;;5.78;1.40;;;;;;;;;;5053444;28;20379;-78
2022/05/14 03:01:36;;;;;;;2.10;1.20;;;;;;;;;;5053105;28;20033;-79
2022/05/14 03:04:02;;;;;;;2.00;1.30;;;;;;;;;;5053269;28;20101;-79
2022/05/14 03:06:28;;;;;;;3.38;1.17;;;;;;;;;;5053868;28;20036;-78
2022/05/14 03:08:54;;;;;;;2.05;1.05;;;;;;;;;;5053138;28;20044;-78
2022/05/14 03:11:20;;;;;;;2.45;1.08;;;;;;;;;;5070092;28;20020;-78
2022/05/14 03:13:45;;;;;;;5.47;1.20;;;;;;;;;;5053309;28;20021;-78
2022/05/14 03:16:11;;;;;;;2.30;1.20;;;;;;;;;;5070331;28;20035;-78
2022/05/14 03:18:37;;;;;;;5.15;1.40;;;;;;;;;;5070413;28;20028;-78
2022/05/14 03:21:03;;;;;;;3.15;1.65;;;;;;;;;;5053469;28;20513;-78
2022/05/14 03:23:28;;;;;;;3.35;1.42;;;;;;;;;;5073442;28;20024;-78
2022/05/14 03:25:54;;;;;;;4.88;1.20;;;;;;;;;;5074174;28;20386;-78
2022/05/14 03:28:20;;;;;;;3.30;1.23;;;;;;;;;;5073830;28;20229;-78
2022/05/14 03:30:45;;;;;;;1.98;1.20;;;;;;;;;;5075009;28;20037;-77
2022/05/14 03:33:10;;;;;;;2.65;1.52;;;;;;;;;;5057402;28;20087;-77
2022/05/14 03:35:36;;;;;;;3.20;1.30;;;;;;;;;;5057052;28;20052;-77
2022/05/14 03:38:02;;;;;;;2.83;1.40;;;;;;;;;;5073323;28;20078;-78
2022/05/14 03:40:27;;;;;;;3.90;1.75;;;;;;;;;;5056916;28;20379;-78
2022/05/14 03:42:52;;;;;;;2.90;1.20;;;;;;;;;;5056403;28;20039;-78
2022/05/14 03:45:18;;;;;;;2.08;1.20;;;;;;;;;;5073523;28;20497;-78
2022/05/14 03:47:43;;;;;;;3.72;1.40;;;;;;;;;;5073215;28;20020;-77
2022/05/14 03:50:09;;;;;;;2.28;1.20;;;;;;;;;;5056506;28;20040;-78
2022/05/14 03:52:34;;;;;;;2.90;1.48;;;;;;;;;;5073091;28;20036;-77
2022/05/14 03:55:00;;;;;;;2.53;1.30;;;;;;;;;;5072916;28;20052;-77
2022/05/14 03:57:26;;;;;;;3.45;1.42;;;;;;;;;;5056566;28;20028;-77
2022/05/14 03:59:51;;;;;;;2.70;1.30;;;;;;;;;;5056134;28;20028;-77
2022/05/14 04:02:17;;;;;;;2.97;1.35;;;;;;;;;;5056115;28;20336;-77
2022/05/14 04:04:43;;;;;;;2.63;1.00;;;;;;;;;;5074375;28;20116;-77
2022/05/14 04:07:10;;;;;;;2.33;1.20;;;;;;;;;;5072919;28;20503;-77
2022/05/14 04:09:35;;;;;;;7.35;1.20;;;;;;;;;;5074155;28;20025;-77
2022/05/14 04:12:01;;;;;;;2.03;1.17;;;;;;;;;;5056318;28;20465;-77
2022/05/14 04:14:26;;;;;;;3.83;1.60;;;;;;;;;;5073047;28;20111;-77
2022/05/14 04:16:52;;;;;;;3.58;1.48;;;;;;;;;;5056426;28;20566;-77
2022/05/14 04:19:19;;;;;;;4.32;1.75;;;;;;;;;;5072831;28;20049;-77
2022/05/14 04:21:44;;;;;;;2.80;1.45;;;;;;;;;;5072774;28;20371;-76
2022/05/14 04:24:10;;;;;;;3.42;1.20;;;;;;;;;;5072739;28;20031;-77
2022/05/14 04:26:35;;;;;;;3.72;1.23;;;;;;;;;;5072813;28;20108;-76
2022/05/14 04:29:01;;;;;;;2.13;1.15;;;;;;;;;;5055750;28;20028;-76
2022/05/14 04:31:26;;;;;;;1.75;1.13;;;;;;;;;;5072639;28;20032;-78
2022/05/14 04:33:52;;;;;;;2.90;1.38;;;;;;;;;;5073861;28;20032;-77
2022/05/14 04:36:18;;;;;;;2.08;1.30;;;;;;;;;;5056251;28;20028;-77
2022/05/14 04:38:43;;;;;;;2.20;1.20;;;;;;;;;;5040336;28;20446;-77
2022/05/14 04:41:09;;;;;;;2.40;1.27;;;;;;;;;;5074422;28;20024;-77
2022/05/14 04:43:34;;;;;;;2.65;1.15;;;;;;;;;;5056532;28;20452;-77
2022/05/14 04:46:00;;;;;;;4.13;1.08;;;;;;;;;;5056125;28;20399;-77
2022/05/14 04:48:26;;;;;;;2.78;1.35;;;;;;;;;;5073149;28;20028;-77
2022/05/14 04:50:51;;;;;;;2.42;1.50;;;;;;;;;;5073037;28;20039;-77
2022/05/14 04:53:16;;;;;;;3.70;1.40;;;;;;;;;;5056181;28;20049;-77
2022/05/14 04:55:42;;;;;;;3.97;1.10;;;;;;;;;;5055976;28;20097;-76
2022/05/14 04:58:08;;;;;;;1.92;1.13;;;;;;;;;;5072667;28;20044;-79
2022/05/14 05:00:35;;;;;;;2.67;1.27;;;;;;;;;;5055974;28;20039;-76
2022/05/14 05:03:19;;;;;;;3.85;1.45;;;;;;;;;;5073104;28;20028;-76
2022/05/14 05:05:52;;;;;;;2.13;1.30;;;;;;;;;;5073938;28;20094;-76
2022/05/14 05:08:18;;;;;;;3.60;1.70;;;;;;;;;;5072731;28;20451;-76
2022/05/14 05:10:44;;;;;;;2.22;1.33;;;;;;;;;;5056350;28;20028;-76
2022/05/14 05:13:19;;;;;;;1.77;1.00;;;;;;;;;;5055760;28;20035;-76
2022/05/14 05:15:44;;;;;;;3.03;1.50;;;;;;;;;;5055603;28;20025;-76
2022/05/14 05:18:10;;;;;;;3.33;1.42;;;;;;;;;;5055484;28;20123;-77
2022/05/14 05:20:37;;;;;;;2.70;1.40;;;;;;;;;;5073130;28;20420;-77
2022/05/14 05:23:03;;;;;;;5.82;1.50;;;;;;;;;;5055662;28;20028;-77
2022/05/14 05:25:29;;;;;;;4.57;1.42;;;;;;;;;;5055414;28;20082;-77
2022/05/14 05:27:55;;;;;;;3.75;1.33;;;;;;;;;;5073992;28;20033;-77
2022/05/14 05:30:20;;;;;;;3.45;1.35;;;;;;;;;;5073874;28;20423;-76
2022/05/14 05:32:45;;;;;;;3.10;1.58;;;;;;;;;;5056482;28;20048;-76
2022/05/14 05:35:11;;;;;;;2.25;1.13;;;;;;;;;;5056401;28;20040;-76
2022/05/14 05:37:36;;;;;;;2.80;1.65;;;;;;;;;;5072002;28;20044;-77
2022/05/14 05:40:03;;;;;;;2.75;1.30;;;;;;;;;;5072349;28;20111;-76
2022/05/14 05:42:28;;;;;;;4.40;1.05;;;;;;;;;;5073836;28;20025;-76
2022/05/14 05:44:54;;;;;;;2.03;1.35;;;;;;;;;;5055731;28;20029;-78
2022/05/14 05:47:19;;;;;;;2.45;1.20;;;;;;;;;;5039011;28;20029;-77
2022/05/14 05:49:45;;;;;;;2.28;1.35;;;;;;;;;;5055375;28;20066;-77
2022/05/14 05:52:14;;;;;;;2.78;1.50;;;;;;;;;;5055233;28;20016;-77
2022/05/14 05:57:38;;;;;;;2.47;1.17;;;;;;;;;;5072612;28;20086;-77
2022/05/14 06:00:09;;;;;;;2.75;1.50;;;;;;;;;;5056284;28;20028;-77
2022/05/14 06:02:35;;;;;;;4.93;1.40;;;;;;;;;;5072589;28;20028;-77
2022/05/14 06:05:00;;;;;;;2.70;1.25;;;;;;;;;;5055534;28;20371;-77
2022/05/14 06:07:26;;;;;;;3.80;1.60;;;;;;;;;;5039153;28;20101;-78
2022/05/14 06:09:51;;;;;;;2.80;1.20;;;;;;;;;;5055465;28;20512;-79
2022/05/14 06:12:16;;;;;;;4.25;1.55;;;;;;;;;;5072144;28;20139;-78
2022/05/14 06:14:43;;;;;;;1.67;1.10;;;;;;;;;;5071568;28;20020;-78
2022/05/14 06:17:08;;;;;;;4.38;1.25;;;;;;;;;;5054519;28;20387;-78
2022/05/14 06:19:34;;;;;;;4.72;1.20;;;;;;;;;;5054265;28;20043;-78
2022/05/14 06:21:59;;;;;;;1.80;1.23;;;;;;;;;;5055598;28;20033;-78
2022/05/14 06:24:24;;;;;;;3.58;1.63;;;;;;;;;;5071639;28;20052;-78
2022/05/14 06:26:50;;;;;;;5.85;1.90;;;;;;;;;;5073197;28;20094;-78
2022/05/14 06:29:15;;;;;;;5.05;1.65;;;;;;;;;;5073055;28;20040;-78
2022/05/14 06:31:40;;;;;;;5.80;1.95;;;;;;;;;;5071485;28;20029;-76
2022/05/14 06:34:06;;;;;;;5.90;1.90;;;;;;;;;;5073197;28;20389;-77
2022/05/14 06:36:33;;;;;;;6.22;2.78;;;;;;;;;;5073005;28;20028;-76
2022/05/14 06:38:59;;;;;;;7.25;2.22;;;;;;;;;;5071838;28;20028;-77
2022/05/14 06:41:24;;;;;;;10.00;2.25;;;;;;;;;;5070684;28;20032;-77
2022/05/14 06:43:50;;;;;;;10.23;2.08;;;;;;;;;;5070547;28;20025;-77
2022/05/14 06:46:15;;;;;;;6.10;1.98;;;;;;;;;;5053921;28;20032;-77
2022/05/14 06:48:41;;;;;;;4.15;1.63;;;;;;;;;;5070929;28;20056;-77
2022/05/14 06:51:09;;;;;;;6.75;2.40;;;;;;;;;;5054643;28;20028;-77
2022/05/14 06:53:36;;;;;;;3.28;1.60;;;;;;;;;;5072570;28;20028;-77
2022/05/14 06:56:03;;;;;;;6.85;2.05;;;;;;;;;;5038497;28;20351;-82
2022/05/14 06:58:32;;;;;;;9.77;2.33;;;;;;;;;;5058586;28;20067;-79
2022/05/14 07:00:58;;;;;;;9.43;3.35;;;;;;;;;;5058304;28;20032;-78
2022/05/14 07:08:52;;;;;;;;;;;;;;;;;;5077293;28;20506;-76
2022/05/14 07:11:17;;;;;;;22.08;6.15;;;;;;;;;;5058107;28;19912;-76
2022/05/14 07:13:43;;;;;;;30.67;6.18;;;;;;;;;;5074824;28;20024;-77
2022/05/14 07:16:08;;;;;;;22.25;5.40;;;;;;;;;;5074248;28;20036;-77
2022/05/14 07:18:33;;;;;;;30.30;6.38;;;;;;;;;;5057250;28;20060;-77
2022/05/14 07:20:59;;;;;;;23.95;6.30;;;;;;;;;;5074647;28;20024;-77
2022/05/14 07:23:24;;;;;;;21.80;6.43;;;;;;;;;;5075037;28;20450;-79
2022/05/14 07:25:50;;;;;;;17.33;4.45;;;;;;;;;;5057743;28;20425;-78
2022/05/14 07:28:16;;;;;;;27.20;5.03;;;;;;;;;;5057927;28;20431;-78
2022/05/14 07:30:41;;;;;;;15.95;4.80;;;;;;;;;;5075954;28;20495;-79
2022/05/14 07:33:06;;;;;;;21.42;5.05;;;;;;;;;;5056706;28;20028;-79
2022/05/14 07:35:33;;;;;;;17.38;4.25;;;;;;;;;;5057080;28;20039;-79
2022/05/14 07:38:01;;;;;;;15.60;3.70;;;;;;;;;;5041682;28;20040;-78
2022/05/14 07:40:28;;;;;;;15.02;4.00;;;;;;;;;;5041400;28;20024;-78
2022/05/14 07:42:58;;;;;;;18.17;3.85;;;;;;;;;;5073277;28;20029;-78
2022/05/14 07:45:27;;;;;;;11.20;3.65;;;;;;;;;;5057017;28;20029;-79
2022/05/14 07:47:53;;;;;;;12.85;3.53;;;;;;;;;;5056953;28;20032;-78
2022/05/14 07:50:19;;;;;;;10.60;4.13;;;;;;;;;;5056670;28;20471;-80
2022/05/14 07:52:44;;;;;;;13.35;3.90;;;;;;;;;;5074447;28;20039;-79
2022/05/14 07:55:10;;;;;;;12.15;3.92;;;;;;;;;;5056201;28;20052;-79
2022/05/14 07:57:36;;;;;;;10.77;3.50;;;;;;;;;;5056258;28;20036;-79
2022/05/14 08:00:04;;;;;;;15.73;4.05;;;;;;;;;;5056289;28;20039;-78
2022/05/14 08:02:31;;;;;;;15.23;4.45;;;;;;;;;;5073333;28;20033;-79
2022/05/14 08:05:04;;;;;;;19.23;4.20;;;;;;;;;;5073160;28;20050;-79
2022/05/14 08:07:31;;;;;;;10.38;3.17;;;;;;;;;;5056576;28;20028;-79
2022/05/14 08:09:56;;;;;;;10.52;3.40;;;;;;;;;;5073147;28;20055;-79
2022/05/14 08:12:21;;;;;;;11.48;3.38;;;;;;;;;;5056456;28;20054;-79
2022/05/14 08:14:47;;;;;;;11.93;3.70;;;;;;;;;;5072956;28;20024;-79
2022/05/14 08:17:12;;;;;;;9.70;2.53;;;;;;;;;;5056272;28;20509;-79
2022/05/14 08:19:38;;;;;;;9.85;3.10;;;;;;;;;;5073105;28;20505;-79
2022/05/14 08:24:48;;;;;;;8.27;2.97;;;;;;;;;;5073116;28;20063;-79
2022/05/14 08:27:14;;;;;;;9.80;3.03;;;;;;;;;;5073813;28;20052;-79
2022/05/14 08:29:41;;;;;;;9.98;2.75;;;;;;;;;;5072705;28;20386;-79
2022/05/14 08:32:07;;;;;;;8.73;3.10;;;;;;;;;;5055828;28;20383;-80
2022/05/14 08:34:33;;;;;;;9.18;2.85;;;;;;;;;;5056234;28;20036;-79
2022/05/14 08:36:59;;;;;;;11.13;2.83;;;;;;;;;;5057866;28;20041;-79
2022/05/14 08:39:25;;;;;;;10.23;2.65;;;;;;;;;;5058120;28;20035;-78
2022/05/14 08:41:51;;;;;;;9.82;2.97;;;;;;;;;;5075468;28;20451;-79
2022/05/14 08:44:21;;;;;;;7.90;3.03;;;;;;;;;;5058501;28;20040;-79
2022/05/14 08:46:53;;;;;;;7.60;2.70;;;;;;;;;;5041469;28;20024;-79
2022/05/14 08:49:50;;;;;;;8.75;2.63;;;;;;;;;;5057618;28;20035;-81
2022/05/14 08:52:20;;;;;;;8.10;3.03;;;;;;;;;;5058262;28;20123;-79
2022/05/14 08:54:46;;;;;;;9.88;2.70;;;;;;;;;;5059291;28;20082;-79
2022/05/14 08:57:18;;;;;;;12.18;2.95;;;;;;;;;;5075363;28;20032;-79
2022/05/14 08:59:59;;;;;;;7.40;2.60;;;;;;;;;;5057235;28;20492;-80
2022/05/14 09:02:33;;;;;;;5.90;2.42;;;;;;;;;;5073112;28;20406;-78
2022/05/14 09:05:01;;;;;;;7.38;2.83;;;;;;;;;;5041655;28;20471;-79
2022/05/14 09:07:27;;;;;;;9.07;2.63;;;;;;;;;;5057274;28;20467;-79
2022/05/14 09:09:55;;;;;;;11.98;2.92;;;;;;;;;;5073590;28;20552;-79
2022/05/14 09:12:28;;;;;;;11.85;2.95;;;;;;;;;;5072040;28;20085;-79
2022/05/14 09:14:58;;;;;;;8.52;2.70;;;;;;;;;;5055794;28;20029;-78
2022/05/14 09:17:28;;;;;;;9.73;2.35;;;;;;;;;;5056212;28;20032;-79
2022/05/14 09:19:54;;;;;;;9.38;2.92;;;;;;;;;;5072204;28;20034;-80
2022/05/14 09:22:23;;;;;;;8.52;2.40;;;;;;;;;;5038640;28;20226;-80
2022/05/14 09:25:24;;;;;;;7.55;2.47;;;;;;;;;;5073632;28;20039;-82
2022/05/14 09:27:59;;;;;;;6.85;2.47;;;;;;;;;;5059368;28;20384;-77
2022/05/14 09:30:30;;;;;;;7.55;2.90;;;;;;;;;;5074305;28;20031;-82
2022/05/14 09:32:55;;;;;;;8.23;2.80;;;;;;;;;;5073572;28;20013;-79
2022/05/14 09:35:24;;;;;;;13.45;3.15;;;;;;;;;;5055762;28;20078;-80
2022/05/14 09:37:50;;;;;;;6.65;2.45;;;;;;;;;;5054558;28;20032;-79
2022/05/14 09:40:26;;;;;;;11.07;2.58;;;;;;;;;;5038379;28;20104;-80
2022/05/14 09:43:10;;;;;;;7.75;2.72;;;;;;;;;;5054356;28;20024;-80
2022/05/14 09:45:38;;;;;;;9.10;2.58;;;;;;;;;;5054917;28;20023;-80
2022/05/14 09:48:17;;;;;;;6.63;2.50;;;;;;;;;;5073581;28;20036;-81
2022/05/14 09:50:46;;;;;;;6.07;2.13;;;;;;;;;;5072756;28;20025;-80
2022/05/14 09:53:12;;;;;;;8.20;2.50;;;;;;;;;;5056100;28;20043;-80
2022/05/14 09:55:50;;;;;;;8.57;2.70;;;;;;;;;;5061684;28;20053;-80
2022/05/14 09:58:57;;;;;;;9.77;3.13;;;;;;;;;;5052451;28;20028;-80
2022/05/14 10:01:28;;;;;;;7.43;2.13;;;;;;;;;;5034944;28;20035;-80
2022/05/14 10:04:06;;;;;;;8.10;2.10;;;;;;;;;;5035919;28;20120;-80
2022/05/14 10:06:45;;;;;;;8.88;2.40;;;;;;;;;;5051995;28;20475;-80
2022/05/14 10:09:19;;;;;;;5.07;2.30;;;;;;;;;;5034517;28;20063;-80
2022/05/14 10:11:50;;;;;;;6.78;2.45;;;;;;;;;;5036228;28;20082;-80
2022/05/14 10:14:29;;;;;;;8.07;2.42;;;;;;;;;;5052429;28;20031;-79
2022/05/14 10:17:18;;;;;;;7.13;2.40;;;;;;;;;;5052695;28;20025;-79
2022/05/14 10:20:05;;;;;;;6.45;1.90;;;;;;;;;;5034324;28;20028;-79
2022/05/14 10:28:30;;;;;;;6.10;2.05;;;;;;;;;;5051414;28;20043;-80
2022/05/14 10:31:14;;;;;;;5.50;2.30;;;;;;;;;;5034164;28;20029;-80
2022/05/14 10:33:39;;;;;;;10.23;2.50;;;;;;;;;;5056196;28;20486;-80
2022/05/14 10:36:20;;;;;;;7.95;2.53;;;;;;;;;;5038065;28;20044;-80
2022/05/14 10:38:56;;;;;;;7.60;2.38;;;;;;;;;;5054866;28;20017;-80
2022/05/14 10:41:41;;;;;;;8.50;2.50;;;;;;;;;;5022275;28;20021;-80
2022/05/14 10:44:13;;;;;;;6.10;2.05;;;;;;;;;;5038166;28;20368;-80
2022/05/14 10:46:40;;;;;;;5.25;2.50;;;;;;;;;;5055678;28;20028;-80
2022/05/14 10:49:29;;;;;;;6.50;2.50;;;;;;;;;;5037907;28;20029;-81
2022/05/14 10:51:55;;;;;;;4.45;1.90;;;;;;;;;;5038359;28;20025;-81
2022/05/14 10:54:23;;;;;;;6.18;2.70;;;;;;;;;;5055840;28;20120;-81
2022/05/14 10:56:56;;;;;;;11.25;2.30;;;;;;;;;;5058219;28;20031;-81
2022/05/14 10:59:37;;;;;;;10.23;2.95;;;;;;;;;;5058953;28;20028;-83
2022/05/14 11:02:07;;;;;;;6.45;2.40;;;;;;;;;;5058473;28;20024;-83
2022/05/14 11:04:38;;;;;;;6.05;2.45;;;;;;;;;;5076257;28;20559;-85
2022/05/14 11:07:14;;;;;;;12.52;2.83;;;;;;;;;;5077806;28;20047;-85
2022/05/14 11:09:44;;;;;;;5.90;2.35;;;;;;;;;;5059826;28;20047;-82
2022/05/14 11:12:18;;;;;;;7.03;2.58;;;;;;;;;;5076440;28;20374;-83
2022/05/14 11:14:48;;;;;;;14.95;2.70;;;;;;;;;;5077652;28;20053;-84
2022/05/14 11:17:18;;;;;;;4.65;2.30;;;;;;;;;;5060090;28;20115;-80
2022/05/14 11:19:43;;;;;;;9.65;2.40;;;;;;;;;;5077021;28;20029;-83
2022/05/14 11:22:25;;;;;;;8.80;2.83;;;;;;;;;;5076066;28;20048;-83
2022/05/14 11:24:51;;;;;;;10.15;2.40;;;;;;;;;;5076221;28;20021;-82
2022/05/14 11:27:31;;;;;;;6.72;2.55;;;;;;;;;;5059652;28;20435;-84
2022/05/14 11:30:06;;;;;;;15.50;2.60;;;;;;;;;;5056946;28;20025;-83
2022/05/14 11:32:47;;;;;;;7.57;2.40;;;;;;;;;;5073628;28;20111;-80
2022/05/14 11:35:13;;;;;;;7.03;2.38;;;;;;;;;;5073821;28;20029;-82
2022/05/14 11:37:43;;;;;;;8.73;2.45;;;;;;;;;;5057165;28;20028;-80
2022/05/14 11:40:14;;;;;;;5.90;2.35;;;;;;;;;;5056930;28;20105;-81
2022/05/14 11:42:40;;;;;;;7.57;2.88;;;;;;;;;;5074975;28;20162;-82
2022/05/14 11:45:15;;;;;;;5.50;2.38;;;;;;;;;;5040305;28;20036;-82
2022/05/14 11:47:58;;;;;;;6.75;2.67;;;;;;;;;;5056741;28;20052;-82
2022/05/14 11:50:40;;;;;;;5.65;2.17;;;;;;;;;;5073540;28;20430;-81
2022/05/14 11:53:15;;;;;;;7.05;2.20;;;;;;;;;;5056584;28;20052;-82
2022/05/14 11:55:50;;;;;;;8.68;2.70;;;;;;;;;;5073126;28;20385;-82
2022/05/14 11:58:50;;;;;;;5.07;2.38;;;;;;;;;;5056529;28;20016;-82
2022/05/14 12:01:19;;;;;;;10.07;2.65;;;;;;;;;;5008374;28;20439;-82
2022/05/14 12:03:45;;;;;;;6.95;2.50;;;;;;;;;;5040045;28;20098;-82
2022/05/14 12:06:13;;;;;;;6.13;1.80;;;;;;;;;;5073372;28;20036;-82
2022/05/14 12:08:59;;;;;;;8.15;3.00;;;;;;;;;;5056435;28;20078;-81
2022/05/14 12:11:30;;;;;;;4.78;2.00;;;;;;;;;;5073128;28;20089;-81
2022/05/14 12:14:08;;;;;;;11.93;3.33;;;;;;;;;;5072890;28;20386;-80
2022/05/14 12:16:40;;;;;;;9.65;2.75;;;;;;;;;;5074292;28;20440;-81
2022/05/14 12:19:24;;;;;;;8.05;2.30;;;;;;;;;;5074253;28;20027;-81
2022/05/14 12:22:15;;;;;;;7.00;2.50;;;;;;;;;;5072728;28;20126;-81
2022/05/14 12:24:59;;;;;;;7.03;2.63;;;;;;;;;;5074282;28;20028;-84
2022/05/14 12:27:25;;;;;;;5.13;2.75;;;;;;;;;;5073227;28;20024;-84
2022/05/14 12:33:20;;;;;;;9.40;2.50;;;;;;;;;;5048656;28;20051;-82
2022/05/14 12:35:57;;;;;;;6.05;2.53;;;;;;;;;;5074568;28;20518;-83
2022/05/14 12:38:35;;;;;;;6.88;2.20;;;;;;;;;;5073277;28;20028;-82
2022/05/14 12:41:01;;;;;;;7.97;2.20;;;;;;;;;;5072956;28;20035;-82
2022/05/14 12:43:27;;;;;;;6.43;2.20;;;;;;;;;;5072760;28;20025;-82
2022/05/14 12:46:22;;;;;;;9.07;2.40;;;;;;;;;;5055721;28;20039;-82
2022/05/14 12:48:50;;;;;;;6.82;2.50;;;;;;;;;;5026948;28;20045;-82
2022/05/14 12:51:21;;;;;;;8.43;3.05;;;;;;;;;;5055581;28;20024;-82
2022/05/14 12:53:47;;;;;;;8.52;2.70;;;;;;;;;;5055409;28;20380;-82
2022/05/14 12:56:13;;;;;;;6.45;2.28;;;;;;;;;;5054807;28;20059;-82
2022/05/14 12:58:40;;;;;;;8.15;2.35;;;;;;;;;;5072309;28;20401;-82
2022/05/14 13:01:07;;;;;;;8.70;2.38;;;;;;;;;;5072126;28;20016;-82
2022/05/14 13:03:43;;;;;;;6.55;2.65;;;;;;;;;;5072057;28;20468;-82
2022/05/14 13:06:13;;;;;;;6.70;2.83;;;;;;;;;;5071836;28;20119;-81
2022/05/14 13:09:02;;;;;;;7.07;2.47;;;;;;;;;;5055087;28;20129;-81
2022/05/14 13:11:29;;;;;;;7.45;2.15;;;;;;;;;;5055019;28;20032;-82
2022/05/14 13:13:59;;;;;;;6.80;2.15;;;;;;;;;;5072005;28;20063;-81
2022/05/14 13:16:26;;;;;;;7.68;2.38;;;;;;;;;;5055039;28;20055;-82
2022/05/14 13:19:02;;;;;;;4.97;2.17;;;;;;;;;;5055672;28;20093;-82
2022/05/14 13:21:34;;;;;;;6.00;2.75;;;;;;;;;;5054820;28;20023;-82
2022/05/14 13:24:03;;;;;;;10.95;2.70;;;;;;;;;;5055239;28;20124;-82
2022/05/14 13:26:39;;;;;;;4.88;1.88;;;;;;;;;;5055337;28;20114;-82
2022/05/14 13:29:26;;;;;;;9.73;2.60;;;;;;;;;;5054909;28;20029;-82
2022/05/14 13:32:11;;;;;;;6.00;2.45;;;;;;;;;;5054868;28;20024;-82
2022/05/14 13:37:40;;;;;;;5.45;2.00;;;;;;;;;;5057860;28;20536;-82
2022/05/14 13:40:25;;;;;;;4.88;2.30;;;;;;;;;;5071565;28;20060;-82
2022/05/14 13:42:54;;;;;;;4.57;1.80;;;;;;;;;;5054535;28;20035;-82
2022/05/14 13:45:31;;;;;;;6.22;2.17;;;;;;;;;;5054546;28;20020;-83
2022/05/14 13:48:00;;;;;;;4.28;2.08;;;;;;;;;;5071110;28;20028;-82
2022/05/14 13:50:36;;;;;;;5.50;2.05;;;;;;;;;;5054788;28;20028;-82
2022/05/14 13:53:03;;;;;;;6.57;2.40;;;;;;;;;;5071350;28;20351;-82
2022/05/14 13:55:40;;;;;;;5.97;1.88;;;;;;;;;;5072399;28;20124;-82
2022/05/14 13:58:07;;;;;;;3.80;1.83;;;;;;;;;;5071229;28;20485;-83
2022/05/14 14:00:50;;;;;;;4.88;2.13;;;;;;;;;;5070972;28;20103;-83
2022/05/14 14:03:19;;;;;;;5.63;2.20;;;;;;;;;;5071235;28;20482;-83
2022/05/14 14:05:45;;;;;;;7.47;2.83;;;;;;;;;;5054230;28;20043;-84
2022/05/14 14:08:13;;;;;;;3.58;1.90;;;;;;;;;;5054124;28;20458;-82
2022/05/14 14:10:43;;;;;;;4.55;1.80;;;;;;;;;;5054361;28;20048;-85
2022/05/14 14:13:10;;;;;;;5.43;2.00;;;;;;;;;;5054827;28;20029;-84
2022/05/14 14:15:38;;;;;;;4.68;1.80;;;;;;;;;;5054696;28;20024;-85
2022/05/14 14:18:04;;;;;;;4.30;1.98;;;;;;;;;;5054967;28;20032;-84
2022/05/14 14:20:32;;;;;;;3.60;1.80;;;;;;;;;;5070844;28;20127;-82
2022/05/14 14:23:03;;;;;;;5.03;2.50;;;;;;;;;;5072514;28;20025;-83
2022/05/14 14:25:29;;;;;;;5.25;1.98;;;;;;;;;;5053913;28;20035;-81
2022/05/14 14:27:55;;;;;;;4.32;1.90;;;;;;;;;;5072192;28;20028;-82
2022/05/14 14:30:20;;;;;;;9.75;2.33;;;;;;;;;;5074400;28;20348;-81
2022/05/14 14:32:45;;;;;;;4.47;2.05;;;;;;;;;;5073514;28;20025;-82
2022/05/14 14:35:13;;;;;;;5.22;2.10;;;;;;;;;;5073420;28;20056;-81
2022/05/14 14:37:39;;;;;;;7.43;2.10;;;;;;;;;;5073276;28;20029;-81
2022/05/14 14:40:06;;;;;;;11.55;2.70;;;;;;;;;;5072073;28;20401;-81
2022/05/14 14:42:31;;;;;;;6.57;2.30;;;;;;;;;;5072646;28;20033;-81
2022/05/14 14:44:57;;;;;;;4.22;2.13;;;;;;;;;;5074119;28;20536;-81
2022/05/14 14:47:23;;;;;;;5.70;2.00;;;;;;;;;;5073641;28;20141;-81
2022/05/14 14:49:48;;;;;;;4.47;2.13;;;;;;;;;;5055518;28;20025;-82
2022/05/14 14:52:14;;;;;;;4.45;2.10;;;;;;;;;;5072831;28;20027;-81
2022/05/14 14:54:39;;;;;;;4.50;1.90;;;;;;;;;;5056387;28;20123;-81
2022/05/14 14:57:05;;;;;;;4.22;1.90;;;;;;;;;;5072156;28;20025;-81
2022/05/14 14:59:30;;;;;;;7.20;2.00;;;;;;;;;;5072809;28;20029;-82
2022/05/14 15:02:02;;;;;;;6.88;2.28;;;;;;;;;;5038994;28;20021;-82
2022/05/14 15:04:37;;;;;;;6.03;2.03;;;;;;;;;;5071600;28;20463;-82
2022/05/14 15:07:03;;;;;;;7.82;2.30;;;;;;;;;;5054453;28;20040;-82
2022/05/14 15:09:29;;;;;;;4.18;1.95;;;;;;;;;;5054523;28;20437;-82
2022/05/14 15:11:54;;;;;;;5.78;2.15;;;;;;;;;;5071069;28;20094;-82
2022/05/14 15:14:21;;;;;;;3.53;1.63;;;;;;;;;;5070780;28;20078;-81
2022/05/14 15:16:47;;;;;;;6.45;2.25;;;;;;;;;;5071187;28;20111;-81
2022/05/14 15:19:12;;;;;;;7.28;2.15;;;;;;;;;;5058351;28;20112;-82
2022/05/14 15:21:37;;;;;;;7.07;2.00;;;;;;;;;;5059592;28;20093;-82
2022/05/14 15:24:04;;;;;;;5.68;2.42;;;;;;;;;;5075165;28;20138;-82